Recent forum postings ...
Today
Change wake turbulence after filing FP
Yesterday
KLM-VA site "not responding", is my flight toast?
3 days ago
Fly KLM Mon CTL
2021-04-09
SCHEDULE FLIGHT BOEING 737
2021-04-08
Law and rules in KLM VA
2021-04-04
Flying a Tour.


 
Aircraft IdentFlightrulesType of Flight
KLM0924I
NumberType of AircraftWake turbulenceEquipmentTransponder Type
1B738
Departure AerodromeDeparture Time
EGAE0938
Cruising speedFlight level
470FL310
Route
BEL L10 RINGA Q39 DANDI UL28 MCT M16 DOLAS L603 LAMSO LAMS2A



Destination AerodromeTotal EETAlternative Aerodrome
EHAM0124
Other information
RMK/KLM VA/WH737/2020/V/ OPR/KLM REG/L2J PR/P1 SEL/KLJP/CHARTS/AVLB

Explanation of the IVAO flightplan

Eglinton (EGAE), United Kingdom

METAR
EGAE 080650Z 23012KT 9999 FEW008 SCT014 BKN041 08/07 Q1015

WINDSW at 14 mph
VISIBILITY16 miles
CONDITIONS
CLOUDSmostly cloudy
TEMP46°F (8°C)
WIND CHILL40°F (4°C)
DEWPT45°F (7°C)
HUMIDITY93%
BAROMETER1015 hPa (29.97 in Hg)

Schiphol (EHAM), Netherlands

METAR
EHAM 080825Z 20011KT 9999 FEW046 06/M01 Q1022 NOSIG

WINDSSW at 13 mph
VISIBILITY16 miles
CONDITIONS
CLOUDSpartly cloudy
TEMP43°F (6°C)
WIND CHILL36°F (2°C)
DEWPT30°F (-1°C)
HUMIDITY61%
BAROMETER1022 hPa (30.18 in Hg)

RUNWAYS

RunwayDesignatorSurfaceHeadingLengthWidthAltitudeILSILS-Freq.Glidescope Pitch
18CENTERASPHALT183.223295.5 ft45.11 ft-3.35 ftCAT III ILS/DME 36C108.753
18LEFTASPHALT183.253393.64 ft45.11 ft-3.35 ftCAT III ILS/DME 36R111.953
Registration TimeGroundspeedAltitudeTransponderHeadingLongitudeLatitudeOn ground
07:28 08-04-20210 kts31 ft1200163-7.1564255.04023Yes
07:312 kts31 ft1200163-7.1564455.04027Yes
07:3411 kts31 ft1200256-7.1595555.03955Yes
07:370 kts31 ft120066-7.1752655.04036Yes
07:40284 kts5155 ft1200132-6.9758655.00283No
07:43399 kts13754 ft7017130-6.601354.83292No
07:46461 kts21258 ft7017124-6.1109254.61405No
07:49509 kts26606 ft7017126-5.5373654.38479No
07:52527 kts31039 ft7017131-4.947354.12056No
07:55519 kts31128 ft7017124-4.3653253.85552No
07:58518 kts31159 ft7017109-3.7972853.64796No
08:01514 kts31158 ft7017104-3.0529353.50565No
08:04514 kts31172 ft7017104-2.3683853.37737No
08:07509 kts31232 ft701795-1.67353.29592No
08:10509 kts31216 ft701796-1.0348553.22624No
08:13510 kts31171 ft701796-0.2825353.13771No
08:16498 kts31184 ft7017960.3458453.06224No
08:19497 kts31220 ft7017951.075852.96949No
08:22497 kts31225 ft7017961.7492352.89041No
08:25495 kts31224 ft7017972.4182652.80769No
08:28472 kts24615 ft70171153.0685952.70829No
08:31412 kts18448 ft7017963.616452.56405No
08:34350 kts13350 ft7017854.1331852.52648No
08:37255 kts8835 ft7017854.5341552.53001No
08:40206 kts5729 ft7017864.8180252.53093No
08:43172 kts3192 ft70171935.0271952.47869No
08:46135 kts1731 ft70172254.9000652.38166No
08:4935 kts-3 ft70172214.7915652.30585Yes
08:5222 kts-3 ft70173434.7674852.30736Yes
08:550 kts-3 ft7017204.767652.3079Yes